sensor_id;sensor_type;location;lat;lon;timestamp;pressure;altitude;pressure_sealevel;temperature;humidity
9129;BME280;4599;50.906;6.786;2024-02-14T00:02:27;100315.53;;;8.28;75.08
9129;BME280;4599;50.906;6.786;2024-02-14T00:06:29;100317.34;;;8.26;75.83
9129;BME280;4599;50.906;6.786;2024-02-14T00:10:36;100298.19;;;8.06;75.99
9129;BME280;4599;50.906;6.786;2024-02-14T00:14:37;100316.41;;;8.28;75.67
9129;BME280;4599;50.906;6.786;2024-02-14T00:18:41;100311.28;;;8.28;75.81
9129;BME280;4599;50.906;6.786;2024-02-14T00:22:43;100317.34;;;8.26;75.43
9129;BME280;4599;50.906;6.786;2024-02-14T00:26:45;100310.91;;;8.20;76.91
9129;BME280;4599;50.906;6.786;2024-02-14T00:30:47;100305.53;;;8.25;76.36
9129;BME280;4599;50.906;6.786;2024-02-14T00:34:50;100296.06;;;8.13;77.19
9129;BME280;4599;50.906;6.786;2024-02-14T00:38:54;100300.69;;;8.20;76.54
9129;BME280;4599;50.906;6.786;2024-02-14T00:42:57;100312.44;;;8.23;77.91
9129;BME280;4599;50.906;6.786;2024-02-14T00:46:59;100300.97;;;8.16;77.88
9129;BME280;4599;50.906;6.786;2024-02-14T00:51:02;100299.69;;;8.23;77.91
9129;BME280;4599;50.906;6.786;2024-02-14T00:55:05;100290.69;;;8.17;78.40
9129;BME280;4599;50.906;6.786;2024-02-14T00:59:07;100277.53;;;8.23;77.79
9129;BME280;4599;50.906;6.786;2024-02-14T01:03:09;100280.38;;;8.19;78.53
9129;BME280;4599;50.906;6.786;2024-02-14T01:07:12;100280.47;;;8.17;79.04
9129;BME280;4599;50.906;6.786;2024-02-14T01:11:14;100281.38;;;8.16;78.74
9129;BME280;4599;50.906;6.786;2024-02-14T01:15:16;100268.97;;;8.24;78.91
9129;BME280;4599;50.906;6.786;2024-02-14T01:19:18;100266.94;;;8.29;79.20
9129;BME280;4599;50.906;6.786;2024-02-14T01:23:21;100265.34;;;8.28;78.93
9129;BME280;4599;50.906;6.786;2024-02-14T01:27:23;100262.00;;;8.26;79.91
9129;BME280;4599;50.906;6.786;2024-02-14T01:31:24;100262.00;;;8.26;79.53
9129;BME280;4599;50.906;6.786;2024-02-14T01:35:26;100261.19;;;8.26;79.97
9129;BME280;4599;50.906;6.786;2024-02-14T01:39:29;100274.06;;;8.24;80.38
9129;BME280;4599;50.906;6.786;2024-02-14T01:43:31;100277.63;;;8.36;80.12
9129;BME280;4599;50.906;6.786;2024-02-14T01:47:33;100279.72;;;8.29;79.73
9129;BME280;4599;50.906;6.786;2024-02-14T01:51:35;100254.28;;;8.28;80.04
9129;BME280;4599;50.906;6.786;2024-02-14T01:55:39;100270.88;;;8.35;80.31
9129;BME280;4599;50.906;6.786;2024-02-14T01:59:41;100246.38;;;8.45;79.86
9129;BME280;4599;50.906;6.786;2024-02-14T02:03:42;100262.84;;;8.27;81.27
9129;BME280;4599;50.906;6.786;2024-02-14T02:07:44;100263.84;;;8.24;81.65
9129;BME280;4599;50.906;6.786;2024-02-14T02:11:48;100258.19;;;8.33;80.78
9129;BME280;4599;50.906;6.786;2024-02-14T02:15:50;100263.41;;;8.32;80.72
9129;BME280;4599;50.906;6.786;2024-02-14T02:19:53;100248.28;;;8.29;81.71
9129;BME280;4599;50.906;6.786;2024-02-14T02:23:57;100253.41;;;8.29;81.92
9129;BME280;4599;50.906;6.786;2024-02-14T02:27:59;100258.56;;;8.27;82.67
9129;BME280;4599;50.906;6.786;2024-02-14T02:32:00;100258.50;;;8.29;82.21
9129;BME280;4599;50.906;6.786;2024-02-14T02:36:03;100249.25;;;8.26;82.74
9129;BME280;4599;50.906;6.786;2024-02-14T02:40:07;100270.13;;;8.33;82.63
9129;BME280;4599;50.906;6.786;2024-02-14T02:44:09;100278.41;;;8.36;82.11
9129;BME280;4599;50.906;6.786;2024-02-14T02:48:10;100292.81;;;8.37;82.42
9129;BME280;4599;50.906;6.786;2024-02-14T02:52:13;100291.38;;;8.33;82.81
9129;BME280;4599;50.906;6.786;2024-02-14T02:56:16;100289.25;;;8.40;82.52
9129;BME280;4599;50.906;6.786;2024-02-14T03:00:18;100289.16;;;8.41;82.45
9129;BME280;4599;50.906;6.786;2024-02-14T03:04:20;100282.41;;;8.40;82.85
9129;BME280;4599;50.906;6.786;2024-02-14T03:08:23;100292.75;;;8.39;83.89
9129;BME280;4599;50.906;6.786;2024-02-14T03:12:26;100287.44;;;8.42;82.64
9129;BME280;4599;50.906;6.786;2024-02-14T03:16:28;100294.13;;;8.30;83.48
9129;BME280;4599;50.906;6.786;2024-02-14T03:20:30;100288.19;;;8.30;83.78
9129;BME280;4599;50.906;6.786;2024-02-14T03:24:32;100280.25;;;8.34;83.37
9129;BME280;4599;50.906;6.786;2024-02-14T03:28:35;100282.72;;;8.36;83.94
9129;BME280;4599;50.906;6.786;2024-02-14T03:32:37;100287.00;;;8.35;83.84
9129;BME280;4599;50.906;6.786;2024-02-14T03:36:39;100285.22;;;8.50;83.30
9129;BME280;4599;50.906;6.786;2024-02-14T03:40:40;100288.88;;;8.46;83.85
9129;BME280;4599;50.906;6.786;2024-02-14T03:44:44;100284.06;;;8.54;83.10
9129;BME280;4599;50.906;6.786;2024-02-14T03:48:45;100288.75;;;8.35;84.21
9129;BME280;4599;50.906;6.786;2024-02-14T03:52:47;100285.38;;;8.47;84.13
9129;BME280;4599;50.906;6.786;2024-02-14T03:56:49;100292.13;;;8.48;83.71
9129;BME280;4599;50.906;6.786;2024-02-14T04:00:52;100284.41;;;8.49;83.96
9129;BME280;4599;50.906;6.786;2024-02-14T04:04:54;100287.44;;;8.42;83.97
9129;BME280;4599;50.906;6.786;2024-02-14T04:08:56;100284.34;;;8.37;84.87
9129;BME280;4599;50.906;6.786;2024-02-14T04:12:57;100291.09;;;8.38;84.84
9129;BME280;4599;50.906;6.786;2024-02-14T04:17:00;100288.81;;;8.33;85.48
9129;BME280;4599;50.906;6.786;2024-02-14T04:21:03;100295.50;;;8.36;85.17
9129;BME280;4599;50.906;6.786;2024-02-14T04:25:07;100278.16;;;8.27;85.03
9129;BME280;4599;50.906;6.786;2024-02-14T04:29:09;100305.94;;;8.45;85.74
9129;BME280;4599;50.906;6.786;2024-02-14T04:33:12;100297.38;;;8.46;85.51
9129;BME280;4599;50.906;6.786;2024-02-14T04:37:15;100307.75;;;8.43;85.83
9129;BME280;4599;50.906;6.786;2024-02-14T04:41:17;100308.91;;;8.52;85.00
9129;BME280;4599;50.906;6.786;2024-02-14T04:45:19;100294.53;;;8.64;84.60
9129;BME280;4599;50.906;6.786;2024-02-14T04:49:22;100301.44;;;8.49;85.73
9129;BME280;4599;50.906;6.786;2024-02-14T04:53:26;100295.84;;;8.57;85.45
9129;BME280;4599;50.906;6.786;2024-02-14T04:57:28;100290.91;;;8.41;86.03
9129;BME280;4599;50.906;6.786;2024-02-14T05:01:30;100289.88;;;8.43;85.57
9129;BME280;4599;50.906;6.786;2024-02-14T05:05:33;100303.78;;;8.39;86.38
9129;BME280;4599;50.906;6.786;2024-02-14T05:09:35;100306.41;;;8.38;86.66
9129;BME280;4599;50.906;6.786;2024-02-14T05:13:37;100301.66;;;8.46;86.72
9129;BME280;4599;50.906;6.786;2024-02-14T05:17:41;100312.44;;;8.64;85.61
9129;BME280;4599;50.906;6.786;2024-02-14T05:21:44;100316.78;;;8.49;86.23
9129;BME280;4599;50.906;6.786;2024-02-14T05:25:46;100322.38;;;8.54;86.51
9129;BME280;4599;50.906;6.786;2024-02-14T05:29:48;100333.19;;;8.45;86.44
9129;BME280;4599;50.906;6.786;2024-02-14T05:33:50;100333.13;;;8.46;87.24
9129;BME280;4599;50.906;6.786;2024-02-14T05:37:53;100332.44;;;8.57;86.80
9129;BME280;4599;50.906;6.786;2024-02-14T05:41:55;100332.59;;;8.54;87.92
9129;BME280;4599;50.906;6.786;2024-02-14T05:45:57;100348.13;;;8.51;89.42
9129;BME280;4599;50.906;6.786;2024-02-14T05:49:59;100349.91;;;8.63;90.34
9129;BME280;4599;50.906;6.786;2024-02-14T05:54:03;100348.91;;;8.39;92.30
9129;BME280;4599;50.906;6.786;2024-02-14T05:58:04;100352.84;;;8.30;93.67
9129;BME280;4599;50.906;6.786;2024-02-14T06:02:06;100342.34;;;8.35;93.44
9129;BME280;4599;50.906;6.786;2024-02-14T06:06:08;100340.25;;;8.27;94.22
9129;BME280;4599;50.906;6.786;2024-02-14T06:10:11;100338.09;;;8.21;94.09
9129;BME280;4599;50.906;6.786;2024-02-14T06:14:13;100343.00;;;8.24;94.52
9129;BME280;4599;50.906;6.786;2024-02-14T06:18:15;100334.78;;;8.19;94.68
9129;BME280;4599;50.906;6.786;2024-02-14T06:22:17;100342.63;;;8.30;94.32
9129;BME280;4599;50.906;6.786;2024-02-14T06:26:20;100350.28;;;8.30;94.27
9129;BME280;4599;50.906;6.786;2024-02-14T06:30:22;100351.97;;;8.44;93.52
9129;BME280;4599;50.906;6.786;2024-02-14T06:34:23;100342.25;;;8.36;93.65
9129;BME280;4599;50.906;6.786;2024-02-14T06:38:26;100348.09;;;8.38;92.79
9129;BME280;4599;50.906;6.786;2024-02-14T06:42:29;100355.91;;;8.49;92.91
9129;BME280;4599;50.906;6.786;2024-02-14T06:46:31;100357.09;;;8.44;92.48
9129;BME280;4599;50.906;6.786;2024-02-14T06:50:33;100365.53;;;8.32;92.83
9129;BME280;4599;50.906;6.786;2024-02-14T06:54:34;100361.56;;;8.40;92.22
9129;BME280;4599;50.906;6.786;2024-02-14T06:58:37;100354.34;;;8.47;91.33
9129;BME280;4599;50.906;6.786;2024-02-14T07:02:39;100367.31;;;8.44;92.13
9129;BME280;4599;50.906;6.786;2024-02-14T07:06:41;100364.88;;;8.42;91.71
9129;BME280;4599;50.906;6.786;2024-02-14T07:10:43;100360.59;;;8.43;91.85
9129;BME280;4599;50.906;6.786;2024-02-14T07:14:46;100366.41;;;8.45;90.95
9129;BME280;4599;50.906;6.786;2024-02-14T07:18:49;100366.94;;;8.50;91.43
9129;BME280;4599;50.906;6.786;2024-02-14T07:22:51;100373.38;;;8.56;90.58
9129;BME280;4599;50.906;6.786;2024-02-14T07:26:52;100373.47;;;8.54;91.20
9129;BME280;4599;50.906;6.786;2024-02-14T07:30:56;100370.00;;;8.55;91.46
9129;BME280;4599;50.906;6.786;2024-02-14T07:34:58;100382.50;;;8.60;91.79
9129;BME280;4599;50.906;6.786;2024-02-14T07:39:00;100392.38;;;8.78;90.23
9129;BME280;4599;50.906;6.786;2024-02-14T07:43:01;100390.81;;;8.76;90.94
9129;BME280;4599;50.906;6.786;2024-02-14T07:47:05;100403.03;;;8.85;89.84
9129;BME280;4599;50.906;6.786;2024-02-14T07:51:08;100399.06;;;8.93;89.99
9129;BME280;4599;50.906;6.786;2024-02-14T07:55:10;100401.31;;;8.98;88.26
9129;BME280;4599;50.906;6.786;2024-02-14T07:59:13;100406.84;;;9.05;88.88
9129;BME280;4599;50.906;6.786;2024-02-14T08:03:16;100404.84;;;9.10;88.11
9129;BME280;4599;50.906;6.786;2024-02-14T08:07:18;100414.94;;;9.11;88.27
9129;BME280;4599;50.906;6.786;2024-02-14T08:11:20;100401.47;;;9.09;89.06
9129;BME280;4599;50.906;6.786;2024-02-14T08:15:22;100403.13;;;9.23;89.00
9129;BME280;4599;50.906;6.786;2024-02-14T08:19:26;100399.34;;;9.41;87.57
9129;BME280;4599;50.906;6.786;2024-02-14T08:23:29;100401.19;;;9.64;87.42
9129;BME280;4599;50.906;6.786;2024-02-14T08:27:30;100410.22;;;9.70;86.73
9129;BME280;4599;50.906;6.786;2024-02-14T08:31:32;100413.50;;;9.72;88.00
9129;BME280;4599;50.906;6.786;2024-02-14T08:35:35;100414.63;;;9.80;86.10
9129;BME280;4599;50.906;6.786;2024-02-14T08:39:43;100416.03;;;9.97;85.75
9129;BME280;4599;50.906;6.786;2024-02-14T08:43:45;100430.56;;;10.09;85.01
9129;BME280;4599;50.906;6.786;2024-02-14T08:47:48;100431.47;;;10.21;84.16
9129;BME280;4599;50.906;6.786;2024-02-14T08:51:52;100432.00;;;10.26;85.18
9129;BME280;4599;50.906;6.786;2024-02-14T08:55:53;100437.91;;;10.39;86.05
9129;BME280;4599;50.906;6.786;2024-02-14T08:59:55;100428.34;;;10.54;83.18
9129;BME280;4599;50.906;6.786;2024-02-14T09:03:58;100434.78;;;10.83;82.86
9129;BME280;4599;50.906;6.786;2024-02-14T09:08:02;100429.81;;;10.92;81.15
9129;BME280;4599;50.906;6.786;2024-02-14T09:12:04;100431.34;;;11.19;80.25
9129;BME280;4599;50.906;6.786;2024-02-14T09:16:07;100424.97;;;11.35;79.52
9129;BME280;4599;50.906;6.786;2024-02-14T09:20:09;100418.25;;;11.57;78.81
9129;BME280;4599;50.906;6.786;2024-02-14T09:24:13;100417.56;;;11.55;78.92
9129;BME280;4599;50.906;6.786;2024-02-14T09:28:15;100423.47;;;11.55;78.74
9129;BME280;4599;50.906;6.786;2024-02-14T09:32:17;100431.91;;;11.57;78.10
9129;BME280;4599;50.906;6.786;2024-02-14T09:36:19;100429.19;;;11.47;78.27
9129;BME280;4599;50.906;6.786;2024-02-14T09:40:23;100439.09;;;11.52;79.05
9129;BME280;4599;50.906;6.786;2024-02-14T09:44:27;100442.47;;;11.41;79.92
9129;BME280;4599;50.906;6.786;2024-02-14T09:48:30;100437.19;;;11.32;80.53
9129;BME280;4599;50.906;6.786;2024-02-14T09:52:33;100440.69;;;11.31;79.93
9129;BME280;4599;50.906;6.786;2024-02-14T09:56:36;100446.31;;;11.36;78.65
9129;BME280;4599;50.906;6.786;2024-02-14T10:00:38;100459.25;;;11.34;78.86
9129;BME280;4599;50.906;6.786;2024-02-14T10:04:40;100462.25;;;11.28;79.43
9129;BME280;4599;50.906;6.786;2024-02-14T10:08:42;100450.53;;;11.37;78.55
9129;BME280;4599;50.906;6.786;2024-02-14T10:13:00;100467.28;;;11.30;79.24
9129;BME280;4599;50.906;6.786;2024-02-14T10:17:03;100476.59;;;11.31;78.67
9129;BME280;4599;50.906;6.786;2024-02-14T10:21:13;100478.94;;;11.23;79.88
9129;BME280;4599;50.906;6.786;2024-02-14T10:25:17;100478.78;;;11.24;79.42
9129;BME280;4599;50.906;6.786;2024-02-14T10:29:21;100458.91;;;11.39;78.94
9129;BME280;4599;50.906;6.786;2024-02-14T10:33:22;100472.47;;;11.52;77.55
9129;BME280;4599;50.906;6.786;2024-02-14T10:37:31;100476.22;;;11.59;79.34
9129;BME280;4599;50.906;6.786;2024-02-14T10:41:35;100469.88;;;11.87;76.89
9129;BME280;4599;50.906;6.786;2024-02-14T10:45:39;100475.25;;;11.84;78.21
9129;BME280;4599;50.906;6.786;2024-02-14T10:49:43;100467.31;;;11.87;78.57
9129;BME280;4599;50.906;6.786;2024-02-14T10:53:45;100487.38;;;11.71;79.95
9129;BME280;4599;50.906;6.786;2024-02-14T10:57:48;100479.00;;;11.56;81.73
9129;BME280;4599;50.906;6.786;2024-02-14T11:01:53;100458.91;;;11.39;83.22
9129;BME280;4599;50.906;6.786;2024-02-14T11:05:55;100476.22;;;11.59;82.07
9129;BME280;4599;50.906;6.786;2024-02-14T11:10:01;100483.75;;;11.38;83.10
9129;BME280;4599;50.906;6.786;2024-02-14T11:14:06;100463.66;;;11.67;81.05
9129;BME280;4599;50.906;6.786;2024-02-14T11:18:09;100471.84;;;11.83;80.94
9129;BME280;4599;50.906;6.786;2024-02-14T11:22:17;100473.63;;;11.83;80.04
9129;BME280;4599;50.906;6.786;2024-02-14T11:26:19;100476.44;;;11.91;80.54
9129;BME280;4599;50.906;6.786;2024-02-14T11:30:31;100470.38;;;11.92;79.27
9129;BME280;4599;50.906;6.786;2024-02-14T11:34:35;100470.63;;;12.00;79.59
9129;BME280;4599;50.906;6.786;2024-02-14T11:38:40;100477.13;;;12.15;79.02
9129;BME280;4599;50.906;6.786;2024-02-14T11:42:42;100467.91;;;12.02;79.26
9129;BME280;4599;50.906;6.786;2024-02-14T11:46:44;100467.91;;;12.02;78.49
9129;BME280;4599;50.906;6.786;2024-02-14T11:50:47;100465.81;;;12.07;78.80
9129;BME280;4599;50.906;6.786;2024-02-14T11:54:49;100464.09;;;12.07;79.55
9129;BME280;4599;50.906;6.786;2024-02-14T11:58:51;100466.41;;;12.10;78.73
9129;BME280;4599;50.906;6.786;2024-02-14T12:02:53;100457.41;;;12.05;80.71
9129;BME280;4599;50.906;6.786;2024-02-14T12:06:57;100451.47;;;12.04;80.36
9129;BME280;4599;50.906;6.786;2024-02-14T12:10:59;100453.44;;;12.12;80.00
9129;BME280;4599;50.906;6.786;2024-02-14T12:15:01;100456.22;;;11.97;80.25
9129;BME280;4599;50.906;6.786;2024-02-14T12:19:07;100449.84;;;12.03;79.67
9129;BME280;4599;50.906;6.786;2024-02-14T12:23:15;100453.56;;;12.10;79.40
9129;BME280;4599;50.906;6.786;2024-02-14T12:27:18;100453.09;;;12.16;78.69
9129;BME280;4599;50.906;6.786;2024-02-14T12:31:22;100449.69;;;12.27;79.12
9129;BME280;4599;50.906;6.786;2024-02-14T12:35:24;100424.84;;;12.16;79.70
9129;BME280;4599;50.906;6.786;2024-02-14T12:39:27;100442.56;;;12.41;77.55
9129;BME280;4599;50.906;6.786;2024-02-14T12:43:29;100441.72;;;12.52;77.96
9129;BME280;4599;50.906;6.786;2024-02-14T12:47:31;100443.94;;;12.57;77.73
9129;BME280;4599;50.906;6.786;2024-02-14T12:51:33;100431.56;;;12.51;77.92
9129;BME280;4599;50.906;6.786;2024-02-14T12:55:36;100433.78;;;12.55;78.01
9129;BME280;4599;50.906;6.786;2024-02-14T12:59:38;100415.19;;;12.52;78.41
9129;BME280;4599;50.906;6.786;2024-02-14T13:03:39;100404.38;;;12.37;80.52
9129;BME280;4599;50.906;6.786;2024-02-14T13:07:42;100431.19;;;12.55;79.70
9129;BME280;4599;50.906;6.786;2024-02-14T13:11:45;100424.47;;;12.43;81.28
9129;BME280;4599;50.906;6.786;2024-02-14T13:15:47;100424.66;;;12.51;80.95
9129;BME280;4599;50.906;6.786;2024-02-14T13:19:48;100425.47;;;12.52;81.60
9129;BME280;4599;50.906;6.786;2024-02-14T13:23:51;100418.00;;;12.48;80.21
9129;BME280;4599;50.906;6.786;2024-02-14T13:27:54;100410.81;;;12.31;81.22
9129;BME280;4599;50.906;6.786;2024-02-14T13:31:56;100423.16;;;12.37;81.23
9129;BME280;4599;50.906;6.786;2024-02-14T13:35:58;100438.94;;;12.33;82.92
9129;BME280;4599;50.906;6.786;2024-02-14T13:40:00;100428.56;;;12.23;84.74
9129;BME280;4599;50.906;6.786;2024-02-14T13:44:03;100427.16;;;12.19;86.89
9129;BME280;4599;50.906;6.786;2024-02-14T13:48:06;100435.47;;;11.89;89.06
9129;BME280;4599;50.906;6.786;2024-02-14T13:52:08;100444.78;;;11.90;89.27
9129;BME280;4599;50.906;6.786;2024-02-14T13:56:10;100438.25;;;11.75;88.48
9129;BME280;4599;50.906;6.786;2024-02-14T14:00:13;100423.25;;;11.69;91.27
9129;BME280;4599;50.906;6.786;2024-02-14T14:04:15;100430.03;;;11.70;91.44
9129;BME280;4599;50.906;6.786;2024-02-14T14:08:18;100427.47;;;11.70;92.49
9129;BME280;4599;50.906;6.786;2024-02-14T14:12:20;100427.00;;;11.65;93.84
9129;BME280;4599;50.906;6.786;2024-02-14T14:16:23;100418.25;;;11.68;93.50
9129;BME280;4599;50.906;6.786;2024-02-14T14:20:24;100428.16;;;11.50;94.93
9129;BME280;4599;50.906;6.786;2024-02-14T14:24:26;100435.84;;;11.50;95.13
9129;BME280;4599;50.906;6.786;2024-02-14T14:28:28;100427.44;;;11.48;94.98
9129;BME280;4599;50.906;6.786;2024-02-14T14:32:33;100430.41;;;11.31;96.04
9129;BME280;4599;50.906;6.786;2024-02-14T14:36:36;100430.91;;;11.36;97.03
9129;BME280;4599;50.906;6.786;2024-02-14T14:40:38;100428.44;;;11.34;96.91
9129;BME280;4599;50.906;6.786;2024-02-14T14:44:39;100431.00;;;11.34;96.73
9129;BME280;4599;50.906;6.786;2024-02-14T14:48:42;100427.53;;;11.35;97.11
9129;BME280;4599;50.906;6.786;2024-02-14T14:52:44;100434.13;;;11.27;97.59
9129;BME280;4599;50.906;6.786;2024-02-14T14:56:46;100443.63;;;11.37;96.72
9129;BME280;4599;50.906;6.786;2024-02-14T15:00:48;100431.38;;;11.30;97.04
9129;BME280;4599;50.906;6.786;2024-02-14T15:04:55;100437.19;;;11.32;96.72
9129;BME280;4599;50.906;6.786;2024-02-14T15:08:57;100437.00;;;11.11;97.92
9129;BME280;4599;50.906;6.786;2024-02-14T15:12:59;100441.03;;;11.26;96.97
9129;BME280;4599;50.906;6.786;2024-02-14T15:17:01;100443.44;;;11.17;97.52
9129;BME280;4599;50.906;6.786;2024-02-14T15:21:05;100420.81;;;11.11;97.43
9129;BME280;4599;50.906;6.786;2024-02-14T15:25:07;100433.84;;;11.08;97.97
9129;BME280;4599;50.906;6.786;2024-02-14T15:29:09;100424.19;;;11.11;98.51
9129;BME280;4599;50.906;6.786;2024-02-14T15:33:12;100426.63;;;11.13;97.71
9129;BME280;4599;50.906;6.786;2024-02-14T15:37:19;100425.59;;;11.15;97.70
9129;BME280;4599;50.906;6.786;2024-02-14T15:41:23;100422.69;;;11.20;97.53
9129;BME280;4599;50.906;6.786;2024-02-14T15:45:24;100425.00;;;11.12;98.14
9129;BME280;4599;50.906;6.786;2024-02-14T15:49:26;100416.97;;;11.16;97.36
9129;BME280;4599;50.906;6.786;2024-02-14T15:53:34;100430.97;;;11.12;97.57
9129;BME280;4599;50.906;6.786;2024-02-14T15:57:35;100427.91;;;11.07;98.54
9129;BME280;4599;50.906;6.786;2024-02-14T16:01:37;100435.22;;;11.01;98.10
9129;BME280;4599;50.906;6.786;2024-02-14T16:05:39;100425.25;;;11.20;96.88
9129;BME280;4599;50.906;6.786;2024-02-14T16:09:42;100428.50;;;11.11;98.45
9129;BME280;4599;50.906;6.786;2024-02-14T16:13:44;100424.34;;;11.21;97.12
9129;BME280;4599;50.906;6.786;2024-02-14T16:17:47;100435.59;;;11.07;98.47
9129;BME280;4599;50.906;6.786;2024-02-14T16:21:49;100427.41;;;11.02;98.64
9129;BME280;4599;50.906;6.786;2024-02-14T16:26:08;100427.75;;;10.97;98.19
9129;BME280;4599;50.906;6.786;2024-02-14T16:30:10;100429.78;;;11.05;98.44
9129;BME280;4599;50.906;6.786;2024-02-14T16:34:12;100435.66;;;10.94;99.18
9129;BME280;4599;50.906;6.786;2024-02-14T16:38:14;100432.34;;;11.05;99.04
9129;BME280;4599;50.906;6.786;2024-02-14T16:42:17;100439.16;;;10.93;99.02
9129;BME280;4599;50.906;6.786;2024-02-14T16:46:19;100434.47;;;10.87;99.24
9129;BME280;4599;50.906;6.786;2024-02-14T16:50:21;100426.28;;;10.82;99.87
9129;BME280;4599;50.906;6.786;2024-02-14T16:54:23;100432.59;;;10.89;99.54
9129;BME280;4599;50.906;6.786;2024-02-14T16:58:26;100437.56;;;11.04;98.65
9129;BME280;4599;50.906;6.786;2024-02-14T17:02:28;100442.16;;;10.87;99.15
9129;BME280;4599;50.906;6.786;2024-02-14T17:06:30;100433.06;;;10.83;99.12
9129;BME280;4599;50.906;6.786;2024-02-14T17:10:32;100434.94;;;10.92;99.33
9129;BME280;4599;50.906;6.786;2024-02-14T17:14:35;100446.94;;;10.92;99.07
9129;BME280;4599;50.906;6.786;2024-02-14T17:18:39;100454.31;;;10.96;98.79
9129;BME280;4599;50.906;6.786;2024-02-14T17:22:41;100460.59;;;10.92;99.05
9129;BME280;4599;50.906;6.786;2024-02-14T17:26:43;100457.94;;;10.94;98.82
9129;BME280;4599;50.906;6.786;2024-02-14T17:30:46;100451.97;;;10.93;98.21
9129;BME280;4599;50.906;6.786;2024-02-14T17:34:50;100459.28;;;10.87;99.45
9129;BME280;4599;50.906;6.786;2024-02-14T17:38:52;100458.69;;;10.83;98.90
9129;BME280;4599;50.906;6.786;2024-02-14T17:42:54;100456.38;;;10.68;99.13
9129;BME280;4599;50.906;6.786;2024-02-14T17:46:57;100467.13;;;10.73;99.57
9129;BME280;4599;50.906;6.786;2024-02-14T17:50:59;100470.72;;;10.70;99.34
9129;BME280;4599;50.906;6.786;2024-02-14T17:55:00;100468.66;;;10.75;99.78
9129;BME280;4599;50.906;6.786;2024-02-14T17:59:03;100476.28;;;10.64;100.00
9129;BME280;4599;50.906;6.786;2024-02-14T18:03:08;100474.84;;;10.60;100.00
9129;BME280;4599;50.906;6.786;2024-02-14T18:07:10;100479.75;;;10.63;100.00
9129;BME280;4599;50.906;6.786;2024-02-14T18:11:12;100487.25;;;10.66;99.33
9129;BME280;4599;50.906;6.786;2024-02-14T18:15:14;100487.94;;;10.68;99.85
9129;BME280;4599;50.906;6.786;2024-02-14T18:19:17;100493.59;;;10.61;100.00
9129;BME280;4599;50.906;6.786;2024-02-14T18:23:19;100489.91;;;10.65;100.00
9129;BME280;4599;50.906;6.786;2024-02-14T18:27:24;100500.06;;;10.66;100.00
9129;BME280;4599;50.906;6.786;2024-02-14T18:31:28;100498.91;;;10.70;99.84
9129;BME280;4599;50.906;6.786;2024-02-14T18:35:31;100500.94;;;10.78;99.55
9129;BME280;4599;50.906;6.786;2024-02-14T18:39:33;100510.72;;;10.73;99.56
9129;BME280;4599;50.906;6.786;2024-02-14T18:43:35;100506.88;;;10.78;99.78
9129;BME280;4599;50.906;6.786;2024-02-14T18:47:37;100504.63;;;10.74;99.69
9129;BME280;4599;50.906;6.786;2024-02-14T18:51:40;100512.91;;;10.90;99.17
9129;BME280;4599;50.906;6.786;2024-02-14T18:55:43;100502.81;;;10.76;99.87
9129;BME280;4599;50.906;6.786;2024-02-14T18:59:44;100508.69;;;10.89;100.00
9129;BME280;4599;50.906;6.786;2024-02-14T19:03:46;100516.28;;;10.90;100.00
9129;BME280;4599;50.906;6.786;2024-02-14T19:07:49;100504.50;;;10.88;100.00
9129;BME280;4599;50.906;6.786;2024-02-14T19:11:51;100506.88;;;10.91;100.00
9129;BME280;4599;50.906;6.786;2024-02-14T19:15:53;100513.00;;;10.88;100.00
9129;BME280;4599;50.906;6.786;2024-02-14T19:19:54;100514.03;;;10.86;100.00
9129;BME280;4599;50.906;6.786;2024-02-14T19:23:57;100517.97;;;10.79;100.00
9129;BME280;4599;50.906;6.786;2024-02-14T19:27:59;100510.88;;;10.82;100.00
9129;BME280;4599;50.906;6.786;2024-02-14T19:32:01;100515.31;;;10.80;100.00
9129;BME280;4599;50.906;6.786;2024-02-14T19:36:03;100513.44;;;10.82;100.00
9129;BME280;4599;50.906;6.786;2024-02-14T19:40:07;100512.44;;;10.72;100.00
9129;BME280;4599;50.906;6.786;2024-02-14T19:44:10;100511.53;;;10.73;100.00
9129;BME280;4599;50.906;6.786;2024-02-14T19:48:11;100521.97;;;10.70;100.00
9129;BME280;4599;50.906;6.786;2024-02-14T19:52:14;100518.19;;;10.76;100.00
9129;BME280;4599;50.906;6.786;2024-02-14T19:56:17;100523.53;;;10.73;100.00
9129;BME280;4599;50.906;6.786;2024-02-14T20:00:19;100530.41;;;10.72;100.00
9129;BME280;4599;50.906;6.786;2024-02-14T20:04:21;100526.41;;;10.68;100.00
9129;BME280;4599;50.906;6.786;2024-02-14T20:12:44;100534.41;;;10.64;100.00
9129;BME280;4599;50.906;6.786;2024-02-14T20:16:45;100521.59;;;10.64;100.00
9129;BME280;4599;50.906;6.786;2024-02-14T20:20:47;100517.66;;;10.71;100.00
9129;BME280;4599;50.906;6.786;2024-02-14T20:24:50;100521.38;;;10.67;100.00
9129;BME280;4599;50.906;6.786;2024-02-14T20:28:53;100519.22;;;10.61;100.00
9129;BME280;4599;50.906;6.786;2024-02-14T20:32:55;100498.13;;;10.57;100.00
9129;BME280;4599;50.906;6.786;2024-02-14T20:36:57;100512.16;;;10.64;100.00
9129;BME280;4599;50.906;6.786;2024-02-14T20:40:59;100510.81;;;10.71;100.00
9129;BME280;4599;50.906;6.786;2024-02-14T20:45:02;100507.31;;;10.72;100.00
9129;BME280;4599;50.906;6.786;2024-02-14T20:49:03;100509.66;;;10.75;100.00
9129;BME280;4599;50.906;6.786;2024-02-14T20:53:06;100516.16;;;10.68;100.00
9129;BME280;4599;50.906;6.786;2024-02-14T20:57:08;100521.97;;;10.70;100.00
9129;BME280;4599;50.906;6.786;2024-02-14T21:01:11;100520.56;;;10.66;100.00
9129;BME280;4599;50.906;6.786;2024-02-14T21:05:13;100535.00;;;10.67;100.00
9129;BME280;4599;50.906;6.786;2024-02-14T21:09:15;100525.47;;;10.69;100.00
9129;BME280;4599;50.906;6.786;2024-02-14T21:13:17;100535.34;;;10.63;100.00
9129;BME280;4599;50.906;6.786;2024-02-14T21:17:20;100535.72;;;10.69;100.00
9129;BME280;4599;50.906;6.786;2024-02-14T21:21:21;100536.75;;;10.67;100.00
9129;BME280;4599;50.906;6.786;2024-02-14T21:25:23;100533.69;;;10.62;100.00
9129;BME280;4599;50.906;6.786;2024-02-14T21:29:25;100526.84;;;10.62;100.00
9129;BME280;4599;50.906;6.786;2024-02-14T21:33:28;100529.50;;;10.61;100.00
9129;BME280;4599;50.906;6.786;2024-02-14T21:37:30;100526.84;;;10.62;100.00
9129;BME280;4599;50.906;6.786;2024-02-14T21:41:33;100526.25;;;10.82;100.00
9129;BME280;4599;50.906;6.786;2024-02-14T21:45:35;100525.88;;;10.63;100.00
9129;BME280;4599;50.906;6.786;2024-02-14T21:49:38;100517.59;;;10.60;100.00